sensor_id;sensor_type;location;lat;lon;timestamp;temperature;humidity
51595;DHT22;37677;53.254;6.594;2022-10-10T00:00:44;9.00;85.70
51595;DHT22;37677;53.254;6.594;2022-10-10T00:03:10;9.30;82.70
51595;DHT22;37677;53.254;6.594;2022-10-10T00:05:38;9.60;99.90
51595;DHT22;37677;53.254;6.594;2022-10-10T00:08:04;9.30;99.90
51595;DHT22;37677;53.254;6.594;2022-10-10T00:10:30;8.90;99.90
51595;DHT22;37677;53.254;6.594;2022-10-10T00:12:56;8.90;99.90
51595;DHT22;37677;53.254;6.594;2022-10-10T00:15:22;8.90;99.90
51595;DHT22;37677;53.254;6.594;2022-10-10T00:17:48;9.40;99.90
51595;DHT22;37677;53.254;6.594;2022-10-10T00:20:15;8.80;99.90
51595;DHT22;37677;53.254;6.594;2022-10-10T00:22:42;8.80;99.90
51595;DHT22;37677;53.254;6.594;2022-10-10T00:25:08;8.80;99.90
51595;DHT22;37677;53.254;6.594;2022-10-10T00:27:35;8.80;99.90
51595;DHT22;37677;53.254;6.594;2022-10-10T00:30:01;8.80;99.90
51595;DHT22;37677;53.254;6.594;2022-10-10T00:32:27;8.70;99.90
51595;DHT22;37677;53.254;6.594;2022-10-10T00:34:53;9.20;99.90
51595;DHT22;37677;53.254;6.594;2022-10-10T00:37:19;8.70;99.90
51595;DHT22;37677;53.254;6.594;2022-10-10T00:39:44;8.70;99.90
51595;DHT22;37677;53.254;6.594;2022-10-10T00:42:12;8.70;99.90
51595;DHT22;37677;53.254;6.594;2022-10-10T00:44:39;8.70;99.90
51595;DHT22;37677;53.254;6.594;2022-10-10T00:47:06;8.70;99.90
51595;DHT22;37677;53.254;6.594;2022-10-10T00:49:33;8.70;99.90
51595;DHT22;37677;53.254;6.594;2022-10-10T00:52:01;8.50;99.90
51595;DHT22;37677;53.254;6.594;2022-10-10T00:54:27;8.60;99.90
51595;DHT22;37677;53.254;6.594;2022-10-10T00:56:59;9.80;99.90
51595;DHT22;37677;53.254;6.594;2022-10-10T00:59:27;8.60;99.90
51595;DHT22;37677;53.254;6.594;2022-10-10T01:01:55;8.90;99.90
51595;DHT22;37677;53.254;6.594;2022-10-10T01:04:39;8.60;99.90
51595;DHT22;37677;53.254;6.594;2022-10-10T01:07:09;8.50;99.90
51595;DHT22;37677;53.254;6.594;2022-10-10T01:09:37;8.90;99.90
51595;DHT22;37677;53.254;6.594;2022-10-10T01:12:41;8.60;99.90
51595;DHT22;37677;53.254;6.594;2022-10-10T01:20:52;8.50;99.90
51595;DHT22;37677;53.254;6.594;2022-10-10T01:23:40;8.50;99.90
51595;DHT22;37677;53.254;6.594;2022-10-10T01:26:40;8.60;99.90
51595;DHT22;37677;53.254;6.594;2022-10-10T01:29:29;8.50;99.90
51595;DHT22;37677;53.254;6.594;2022-10-10T01:32:02;8.50;99.90
51595;DHT22;37677;53.254;6.594;2022-10-10T01:34:46;8.40;99.90
51595;DHT22;37677;53.254;6.594;2022-10-10T01:37:25;8.50;99.90
51595;DHT22;37677;53.254;6.594;2022-10-10T01:40:03;8.50;99.90
51595;DHT22;37677;53.254;6.594;2022-10-10T01:42:50;8.50;99.90
51595;DHT22;37677;53.254;6.594;2022-10-10T01:45:19;8.40;99.90
51595;DHT22;37677;53.254;6.594;2022-10-10T01:47:45;8.40;99.90
51595;DHT22;37677;53.254;6.594;2022-10-10T01:50:15;8.40;99.90
51595;DHT22;37677;53.254;6.594;2022-10-10T01:58:19;8.40;99.90
51595;DHT22;37677;53.254;6.594;2022-10-10T02:01:10;8.30;99.90
51595;DHT22;37677;53.254;6.594;2022-10-10T02:03:43;7.80;99.90
51595;DHT22;37677;53.254;6.594;2022-10-10T02:06:50;8.20;99.90
51595;DHT22;37677;53.254;6.594;2022-10-10T02:09:21;9.40;99.90
51595;DHT22;37677;53.254;6.594;2022-10-10T02:11:49;8.30;99.90
51595;DHT22;37677;53.254;6.594;2022-10-10T02:14:18;8.20;99.90
51595;DHT22;37677;53.254;6.594;2022-10-10T02:16:46;8.20;99.90
51595;DHT22;37677;53.254;6.594;2022-10-10T02:19:16;8.10;99.90
51595;DHT22;37677;53.254;6.594;2022-10-10T02:21:44;8.80;99.90
51595;DHT22;37677;53.254;6.594;2022-10-10T02:24:12;8.60;99.90
51595;DHT22;37677;53.254;6.594;2022-10-10T02:26:40;8.10;99.90
51595;DHT22;37677;53.254;6.594;2022-10-10T02:29:16;8.10;99.90
51595;DHT22;37677;53.254;6.594;2022-10-10T02:34:31;8.10;99.90
51595;DHT22;37677;53.254;6.594;2022-10-10T02:37:01;8.00;1.00
51595;DHT22;37677;53.254;6.594;2022-10-10T02:39:30;8.10;1.00
51595;DHT22;37677;53.254;6.594;2022-10-10T02:41:56;8.10;1.00
51595;DHT22;37677;53.254;6.594;2022-10-10T02:44:22;8.40;1.00
51595;DHT22;37677;53.254;6.594;2022-10-10T02:46:49;8.00;1.00
51595;DHT22;37677;53.254;6.594;2022-10-10T02:49:22;8.00;1.00
51595;DHT22;37677;53.254;6.594;2022-10-10T02:51:48;8.40;1.00
51595;DHT22;37677;53.254;6.594;2022-10-10T02:54:14;8.20;1.00
51595;DHT22;37677;53.254;6.594;2022-10-10T02:56:39;8.00;1.00
51595;DHT22;37677;53.254;6.594;2022-10-10T02:59:05;8.10;1.00
51595;DHT22;37677;53.254;6.594;2022-10-10T03:01:31;8.80;1.00
51595;DHT22;37677;53.254;6.594;2022-10-10T03:03:56;8.40;1.00
51595;DHT22;37677;53.254;6.594;2022-10-10T03:06:22;8.10;1.00
51595;DHT22;37677;53.254;6.594;2022-10-10T03:08:48;8.00;1.00
51595;DHT22;37677;53.254;6.594;2022-10-10T03:11:14;8.10;1.00
51595;DHT22;37677;53.254;6.594;2022-10-10T03:13:40;8.00;1.00
51595;DHT22;37677;53.254;6.594;2022-10-10T03:16:05;8.10;1.00
51595;DHT22;37677;53.254;6.594;2022-10-10T03:18:31;8.00;1.00
51595;DHT22;37677;53.254;6.594;2022-10-10T03:20:57;8.00;1.00
51595;DHT22;37677;53.254;6.594;2022-10-10T03:23:23;8.00;1.00
51595;DHT22;37677;53.254;6.594;2022-10-10T03:25:49;8.00;1.00
51595;DHT22;37677;53.254;6.594;2022-10-10T03:28:15;8.10;1.00
51595;DHT22;37677;53.254;6.594;2022-10-10T03:30:41;8.00;1.00
51595;DHT22;37677;53.254;6.594;2022-10-10T03:33:07;8.00;1.00
51595;DHT22;37677;53.254;6.594;2022-10-10T03:35:33;8.00;1.00
51595;DHT22;37677;53.254;6.594;2022-10-10T03:37:59;8.60;1.00
51595;DHT22;37677;53.254;6.594;2022-10-10T03:40:26;8.60;1.00
51595;DHT22;37677;53.254;6.594;2022-10-10T03:42:52;7.90;1.00
51595;DHT22;37677;53.254;6.594;2022-10-10T03:45:18;8.10;1.00
51595;DHT22;37677;53.254;6.594;2022-10-10T03:47:44;8.10;1.00
51595;DHT22;37677;53.254;6.594;2022-10-10T03:50:09;8.10;1.00
51595;DHT22;37677;53.254;6.594;2022-10-10T03:52:35;8.20;1.00
51595;DHT22;37677;53.254;6.594;2022-10-10T03:55:01;8.10;1.00
51595;DHT22;37677;53.254;6.594;2022-10-10T03:57:27;8.10;99.90
51595;DHT22;37677;53.254;6.594;2022-10-10T03:59:53;8.10;99.90
51595;DHT22;37677;53.254;6.594;2022-10-10T04:02:18;9.30;99.90
51595;DHT22;37677;53.254;6.594;2022-10-10T04:04:44;8.10;99.90
51595;DHT22;37677;53.254;6.594;2022-10-10T04:07:10;8.10;99.90
51595;DHT22;37677;53.254;6.594;2022-10-10T04:09:36;8.80;99.90
51595;DHT22;37677;53.254;6.594;2022-10-10T04:12:01;8.20;99.90
51595;DHT22;37677;53.254;6.594;2022-10-10T04:14:27;8.10;99.90
51595;DHT22;37677;53.254;6.594;2022-10-10T04:16:53;8.00;99.90
51595;DHT22;37677;53.254;6.594;2022-10-10T04:19:18;8.10;99.90
51595;DHT22;37677;53.254;6.594;2022-10-10T04:21:44;8.10;99.90
51595;DHT22;37677;53.254;6.594;2022-10-10T04:24:10;8.20;99.90
51595;DHT22;37677;53.254;6.594;2022-10-10T04:26:36;8.00;99.90
51595;DHT22;37677;53.254;6.594;2022-10-10T04:29:02;8.10;99.90
51595;DHT22;37677;53.254;6.594;2022-10-10T04:31:28;8.10;1.00
51595;DHT22;37677;53.254;6.594;2022-10-10T04:33:53;8.00;1.00
51595;DHT22;37677;53.254;6.594;2022-10-10T04:36:19;8.40;1.00
51595;DHT22;37677;53.254;6.594;2022-10-10T04:38:45;8.10;1.00
51595;DHT22;37677;53.254;6.594;2022-10-10T04:41:10;8.10;1.00
51595;DHT22;37677;53.254;6.594;2022-10-10T04:43:36;8.80;1.00
51595;DHT22;37677;53.254;6.594;2022-10-10T04:46:02;8.00;1.00
51595;DHT22;37677;53.254;6.594;2022-10-10T04:48:27;8.10;1.00
51595;DHT22;37677;53.254;6.594;2022-10-10T04:50:55;8.00;1.00
51595;DHT22;37677;53.254;6.594;2022-10-10T04:53:21;8.10;1.00
51595;DHT22;37677;53.254;6.594;2022-10-10T04:55:47;8.00;1.00
51595;DHT22;37677;53.254;6.594;2022-10-10T04:58:13;8.00;1.00
51595;DHT22;37677;53.254;6.594;2022-10-10T05:00:38;7.90;1.00
51595;DHT22;37677;53.254;6.594;2022-10-10T05:03:04;8.10;1.00
51595;DHT22;37677;53.254;6.594;2022-10-10T05:05:30;8.20;1.00
51595;DHT22;37677;53.254;6.594;2022-10-10T05:07:56;8.20;1.00
51595;DHT22;37677;53.254;6.594;2022-10-10T05:10:22;8.40;1.00
51595;DHT22;37677;53.254;6.594;2022-10-10T05:12:48;8.00;1.00
51595;DHT22;37677;53.254;6.594;2022-10-10T05:15:14;8.00;1.00
51595;DHT22;37677;53.254;6.594;2022-10-10T05:17:40;8.00;1.00
51595;DHT22;37677;53.254;6.594;2022-10-10T05:20:06;8.00;1.00
51595;DHT22;37677;53.254;6.594;2022-10-10T05:22:31;8.00;1.00
51595;DHT22;37677;53.254;6.594;2022-10-10T05:24:57;8.00;1.00
51595;DHT22;37677;53.254;6.594;2022-10-10T05:27:25;8.00;1.00
51595;DHT22;37677;53.254;6.594;2022-10-10T05:29:51;8.20;1.00
51595;DHT22;37677;53.254;6.594;2022-10-10T05:32:17;8.00;1.00
51595;DHT22;37677;53.254;6.594;2022-10-10T05:34:43;8.40;1.00
51595;DHT22;37677;53.254;6.594;2022-10-10T05:37:08;8.00;1.00
51595;DHT22;37677;53.254;6.594;2022-10-10T05:39:34;8.00;1.00
51595;DHT22;37677;53.254;6.594;2022-10-10T05:42:00;7.80;1.00
51595;DHT22;37677;53.254;6.594;2022-10-10T05:44:25;8.50;1.00
51595;DHT22;37677;53.254;6.594;2022-10-10T05:46:51;7.90;1.00
51595;DHT22;37677;53.254;6.594;2022-10-10T05:49:17;7.90;1.00
51595;DHT22;37677;53.254;6.594;2022-10-10T05:51:43;7.90;1.00
51595;DHT22;37677;53.254;6.594;2022-10-10T05:54:08;8.00;1.00
51595;DHT22;37677;53.254;6.594;2022-10-10T05:56:34;7.90;1.00
51595;DHT22;37677;53.254;6.594;2022-10-10T05:59:00;8.00;1.00
51595;DHT22;37677;53.254;6.594;2022-10-10T06:01:26;9.10;1.00
51595;DHT22;37677;53.254;6.594;2022-10-10T06:03:52;8.00;1.00
51595;DHT22;37677;53.254;6.594;2022-10-10T06:06:21;7.90;1.00
51595;DHT22;37677;53.254;6.594;2022-10-10T06:08:47;7.90;1.00
51595;DHT22;37677;53.254;6.594;2022-10-10T06:11:12;7.90;1.00
51595;DHT22;37677;53.254;6.594;2022-10-10T06:13:40;8.40;1.00
51595;DHT22;37677;53.254;6.594;2022-10-10T06:16:06;8.10;1.00
51595;DHT22;37677;53.254;6.594;2022-10-10T06:18:31;8.10;1.00
51595;DHT22;37677;53.254;6.594;2022-10-10T06:21:07;8.20;1.00
51595;DHT22;37677;53.254;6.594;2022-10-10T06:23:33;8.20;1.00
51595;DHT22;37677;53.254;6.594;2022-10-10T06:25:59;8.50;1.00
51595;DHT22;37677;53.254;6.594;2022-10-10T06:28:25;9.00;1.00
51595;DHT22;37677;53.254;6.594;2022-10-10T06:30:51;8.30;1.00
51595;DHT22;37677;53.254;6.594;2022-10-10T06:33:17;8.50;1.00
51595;DHT22;37677;53.254;6.594;2022-10-10T06:35:47;8.50;1.00
51595;DHT22;37677;53.254;6.594;2022-10-10T06:38:14;9.00;1.00
51595;DHT22;37677;53.254;6.594;2022-10-10T06:40:41;8.60;1.00
51595;DHT22;37677;53.254;6.594;2022-10-10T06:43:08;8.90;1.00
51595;DHT22;37677;53.254;6.594;2022-10-10T06:45:38;9.10;1.00
51595;DHT22;37677;53.254;6.594;2022-10-10T06:48:04;9.30;1.00
51595;DHT22;37677;53.254;6.594;2022-10-10T06:50:29;8.80;1.00
51595;DHT22;37677;53.254;6.594;2022-10-10T06:52:55;8.90;1.00
51595;DHT22;37677;53.254;6.594;2022-10-10T06:55:21;9.30;1.00
51595;DHT22;37677;53.254;6.594;2022-10-10T06:57:47;9.20;1.00
51595;DHT22;37677;53.254;6.594;2022-10-10T07:00:13;9.20;1.00
51595;DHT22;37677;53.254;6.594;2022-10-10T07:02:39;9.20;1.00
51595;DHT22;37677;53.254;6.594;2022-10-10T07:05:07;9.40;1.00
51595;DHT22;37677;53.254;6.594;2022-10-10T07:07:34;9.50;1.00
51595;DHT22;37677;53.254;6.594;2022-10-10T07:10:00;9.90;1.00
51595;DHT22;37677;53.254;6.594;2022-10-10T07:12:26;9.80;99.90
51595;DHT22;37677;53.254;6.594;2022-10-10T07:14:52;9.80;99.90
51595;DHT22;37677;53.254;6.594;2022-10-10T07:17:17;9.80;99.90
51595;DHT22;37677;53.254;6.594;2022-10-10T07:19:43;9.90;99.90
51595;DHT22;37677;53.254;6.594;2022-10-10T07:22:10;10.10;99.90
51595;DHT22;37677;53.254;6.594;2022-10-10T07:24:36;10.30;99.90
51595;DHT22;37677;53.254;6.594;2022-10-10T07:27:02;10.60;99.90
51595;DHT22;37677;53.254;6.594;2022-10-10T07:29:29;10.60;95.30
51595;DHT22;37677;53.254;6.594;2022-10-10T07:31:55;10.80;99.90
51595;DHT22;37677;53.254;6.594;2022-10-10T07:34:21;10.80;99.90
51595;DHT22;37677;53.254;6.594;2022-10-10T07:36:47;11.00;99.90
51595;DHT22;37677;53.254;6.594;2022-10-10T07:39:18;11.00;1.00
51595;DHT22;37677;53.254;6.594;2022-10-10T07:41:44;11.10;99.90
51595;DHT22;37677;53.254;6.594;2022-10-10T07:44:10;11.10;99.90
51595;DHT22;37677;53.254;6.594;2022-10-10T07:46:36;11.10;99.90
51595;DHT22;37677;53.254;6.594;2022-10-10T07:49:02;11.00;67.40
51595;DHT22;37677;53.254;6.594;2022-10-10T07:51:27;11.00;99.90
51595;DHT22;37677;53.254;6.594;2022-10-10T07:53:53;11.10;93.50
51595;DHT22;37677;53.254;6.594;2022-10-10T07:56:19;11.00;99.90
51595;DHT22;37677;53.254;6.594;2022-10-10T07:58:45;11.20;99.90
51595;DHT22;37677;53.254;6.594;2022-10-10T08:01:11;11.30;96.20
51595;DHT22;37677;53.254;6.594;2022-10-10T08:03:38;11.40;1.00
51595;DHT22;37677;53.254;6.594;2022-10-10T08:06:07;11.40;99.90
51595;DHT22;37677;53.254;6.594;2022-10-10T08:08:33;11.60;99.90
51595;DHT22;37677;53.254;6.594;2022-10-10T08:10:59;12.00;99.90
51595;DHT22;37677;53.254;6.594;2022-10-10T08:13:26;12.40;99.90
51595;DHT22;37677;53.254;6.594;2022-10-10T08:15:52;12.50;99.90
51595;DHT22;37677;53.254;6.594;2022-10-10T08:18:18;12.80;1.00
51595;DHT22;37677;53.254;6.594;2022-10-10T08:20:44;12.90;99.90
51595;DHT22;37677;53.254;6.594;2022-10-10T08:23:10;12.80;46.40
51595;DHT22;37677;53.254;6.594;2022-10-10T08:25:36;12.70;99.90
51595;DHT22;37677;53.254;6.594;2022-10-10T08:28:02;13.10;1.00
51595;DHT22;37677;53.254;6.594;2022-10-10T08:30:28;13.70;99.90
51595;DHT22;37677;53.254;6.594;2022-10-10T08:32:53;14.30;1.00
51595;DHT22;37677;53.254;6.594;2022-10-10T08:35:19;14.30;99.90
51595;DHT22;37677;53.254;6.594;2022-10-10T08:40:15;15.60;1.00
51595;DHT22;37677;53.254;6.594;2022-10-10T08:42:45;16.20;54.80
51595;DHT22;37677;53.254;6.594;2022-10-10T08:45:16;16.30;99.90
51595;DHT22;37677;53.254;6.594;2022-10-10T08:48:00;16.40;99.90
51595;DHT22;37677;53.254;6.594;2022-10-10T08:50:54;16.30;1.00
51595;DHT22;37677;53.254;6.594;2022-10-10T08:53:27;16.10;1.00
51595;DHT22;37677;53.254;6.594;2022-10-10T08:55:54;16.00;64.00
51595;DHT22;37677;53.254;6.594;2022-10-10T08:58:26;16.50;99.90
51595;DHT22;37677;53.254;6.594;2022-10-10T09:03:52;16.80;1.00
51595;DHT22;37677;53.254;6.594;2022-10-10T09:06:49;16.90;99.90
51595;DHT22;37677;53.254;6.594;2022-10-10T09:14:54;17.90;99.90
51595;DHT22;37677;53.254;6.594;2022-10-10T09:23:01;19.20;7.90
51595;DHT22;37677;53.254;6.594;2022-10-10T09:25:39;19.00;1.00
51595;DHT22;37677;53.254;6.594;2022-10-10T09:30:56;19.20;1.00
51595;DHT22;37677;53.254;6.594;2022-10-10T09:33:28;19.00;1.00
51595;DHT22;37677;53.254;6.594;2022-10-10T09:35:58;17.90;99.90
51595;DHT22;37677;53.254;6.594;2022-10-10T09:38:49;17.80;1.00
51595;DHT22;37677;53.254;6.594;2022-10-10T09:43:58;17.20;1.00
51595;DHT22;37677;53.254;6.594;2022-10-10T09:46:25;17.20;1.00
51595;DHT22;37677;53.254;6.594;2022-10-10T09:48:51;17.40;1.00
51595;DHT22;37677;53.254;6.594;2022-10-10T09:51:19;17.60;1.00
51595;DHT22;37677;53.254;6.594;2022-10-10T09:53:47;17.90;1.00
51595;DHT22;37677;53.254;6.594;2022-10-10T09:56:25;18.30;1.00
51595;DHT22;37677;53.254;6.594;2022-10-10T09:58:53;18.30;1.00
51595;DHT22;37677;53.254;6.594;2022-10-10T10:01:24;18.70;1.00
51595;DHT22;37677;53.254;6.594;2022-10-10T10:06:42;19.90;99.90
51595;DHT22;37677;53.254;6.594;2022-10-10T10:09:13;19.90;99.90
51595;DHT22;37677;53.254;6.594;2022-10-10T10:11:39;20.50;99.90
51595;DHT22;37677;53.254;6.594;2022-10-10T10:14:05;20.40;99.90
51595;DHT22;37677;53.254;6.594;2022-10-10T10:16:38;19.90;99.90
51595;DHT22;37677;53.254;6.594;2022-10-10T10:19:04;19.50;99.90
51595;DHT22;37677;53.254;6.594;2022-10-10T10:21:48;19.40;99.90
51595;DHT22;37677;53.254;6.594;2022-10-10T10:24:22;19.20;99.90
51595;DHT22;37677;53.254;6.594;2022-10-10T10:26:53;19.20;99.90
51595;DHT22;37677;53.254;6.594;2022-10-10T10:37:51;18.00;99.90
51595;DHT22;37677;53.254;6.594;2022-10-10T10:40:24;18.10;99.90
51595;DHT22;37677;53.254;6.594;2022-10-10T10:46:10;18.80;99.90
51595;DHT22;37677;53.254;6.594;2022-10-10T10:48:58;19.40;99.90
51595;DHT22;37677;53.254;6.594;2022-10-10T10:56:28;19.40;99.90
51595;DHT22;37677;53.254;6.594;2022-10-10T10:59:03;19.10;99.90
51595;DHT22;37677;53.254;6.594;2022-10-10T11:01:39;18.60;99.90
51595;DHT22;37677;53.254;6.594;2022-10-10T11:04:29;18.10;99.90
51595;DHT22;37677;53.254;6.594;2022-10-10T11:07:16;17.80;99.90
51595;DHT22;37677;53.254;6.594;2022-10-10T11:10:07;17.70;99.90
51595;DHT22;37677;53.254;6.594;2022-10-10T11:12:55;17.60;99.90
51595;DHT22;37677;53.254;6.594;2022-10-10T11:15:32;17.00;1.00
51595;DHT22;37677;53.254;6.594;2022-10-10T11:18:07;16.70;1.00
51595;DHT22;37677;53.254;6.594;2022-10-10T11:20:40;16.60;1.00
51595;DHT22;37677;53.254;6.594;2022-10-10T11:23:21;16.40;46.10
51595;DHT22;37677;53.254;6.594;2022-10-10T11:26:53;16.10;99.90
51595;DHT22;37677;53.254;6.594;2022-10-10T11:29:04;15.90;99.90
51595;DHT22;37677;53.254;6.594;2022-10-10T11:31:46;15.80;1.00
51595;DHT22;37677;53.254;6.594;2022-10-10T11:34:31;15.60;32.70
51595;DHT22;37677;53.254;6.594;2022-10-10T11:37:04;15.50;99.90
51595;DHT22;37677;53.254;6.594;2022-10-10T11:39:47;15.50;99.90
51595;DHT22;37677;53.254;6.594;2022-10-10T11:42:42;15.40;1.00
51595;DHT22;37677;53.254;6.594;2022-10-10T11:45:16;15.30;99.90
51595;DHT22;37677;53.254;6.594;2022-10-10T11:48:18;15.10;1.00
51595;DHT22;37677;53.254;6.594;2022-10-10T11:50:51;15.10;1.00
51595;DHT22;37677;53.254;6.594;2022-10-10T11:53:21;15.00;1.00
51595;DHT22;37677;53.254;6.594;2022-10-10T11:56:31;14.90;99.90
51595;DHT22;37677;53.254;6.594;2022-10-10T11:58:56;14.90;99.90
51595;DHT22;37677;53.254;6.594;2022-10-10T12:01:34;14.90;1.00
51595;DHT22;37677;53.254;6.594;2022-10-10T12:04:01;14.90;1.00
51595;DHT22;37677;53.254;6.594;2022-10-10T12:09:19;14.90;55.90
51595;DHT22;37677;53.254;6.594;2022-10-10T12:11:52;14.80;99.90
51595;DHT22;37677;53.254;6.594;2022-10-10T12:14:20;14.80;1.00
51595;DHT22;37677;53.254;6.594;2022-10-10T12:16:47;14.80;1.00
51595;DHT22;37677;53.254;6.594;2022-10-10T12:19:17;14.80;1.00
51595;DHT22;37677;53.254;6.594;2022-10-10T12:21:58;14.80;1.00
51595;DHT22;37677;53.254;6.594;2022-10-10T12:24:27;14.80;51.70
51595;DHT22;37677;53.254;6.594;2022-10-10T12:42:58;14.80;99.90
51595;DHT22;37677;53.254;6.594;2022-10-10T12:48:03;14.70;99.90
51595;DHT22;37677;53.254;6.594;2022-10-10T12:50:37;14.70;99.90
51595;DHT22;37677;53.254;6.594;2022-10-10T12:53:14;14.60;1.00
51595;DHT22;37677;53.254;6.594;2022-10-10T12:55:44;14.60;1.00
51595;DHT22;37677;53.254;6.594;2022-10-10T12:58:26;14.50;1.00
51595;DHT22;37677;53.254;6.594;2022-10-10T13:00:56;14.40;1.00
51595;DHT22;37677;53.254;6.594;2022-10-10T13:03:26;14.30;1.00
51595;DHT22;37677;53.254;6.594;2022-10-10T13:05:53;14.20;1.00
51595;DHT22;37677;53.254;6.594;2022-10-10T13:08:23;14.10;1.00
51595;DHT22;37677;53.254;6.594;2022-10-10T13:11:11;14.10;1.00
51595;DHT22;37677;53.254;6.594;2022-10-10T13:13:38;14.10;1.00
51595;DHT22;37677;53.254;6.594;2022-10-10T13:16:14;14.00;1.00
51595;DHT22;37677;53.254;6.594;2022-10-10T13:18:51;14.00;1.00
51595;DHT22;37677;53.254;6.594;2022-10-10T13:21:20;13.90;1.00
51595;DHT22;37677;53.254;6.594;2022-10-10T13:23:49;13.90;1.00
51595;DHT22;37677;53.254;6.594;2022-10-10T13:26:42;13.90;1.00
51595;DHT22;37677;53.254;6.594;2022-10-10T13:29:24;13.90;1.00
51595;DHT22;37677;53.254;6.594;2022-10-10T13:31:53;13.90;1.00
51595;DHT22;37677;53.254;6.594;2022-10-10T13:34:24;13.80;1.00
51595;DHT22;37677;53.254;6.594;2022-10-10T13:36:55;13.80;1.00
51595;DHT22;37677;53.254;6.594;2022-10-10T13:39:22;13.70;1.00
51595;DHT22;37677;53.254;6.594;2022-10-10T13:41:48;13.70;1.90
51595;DHT22;37677;53.254;6.594;2022-10-10T13:44:31;13.60;8.60
51595;DHT22;37677;53.254;6.594;2022-10-10T13:46:57;13.50;7.90
51595;DHT22;37677;53.254;6.594;2022-10-10T13:49:25;13.40;5.90
51595;DHT22;37677;53.254;6.594;2022-10-10T13:52:14;13.30;5.50
51595;DHT22;37677;53.254;6.594;2022-10-10T13:54:45;13.20;9.20
51595;DHT22;37677;53.254;6.594;2022-10-10T13:59:43;13.10;8.40
51595;DHT22;37677;53.254;6.594;2022-10-10T14:02:15;13.00;7.10
51595;DHT22;37677;53.254;6.594;2022-10-10T14:04:46;12.90;3.90
51595;DHT22;37677;53.254;6.594;2022-10-10T14:07:24;13.00;5.70
51595;DHT22;37677;53.254;6.594;2022-10-10T14:09:59;13.00;4.40
51595;DHT22;37677;53.254;6.594;2022-10-10T14:12:45;12.90;1.00
51595;DHT22;37677;53.254;6.594;2022-10-10T14:15:35;12.90;1.00
51595;DHT22;37677;53.254;6.594;2022-10-10T14:18:09;12.90;1.00
51595;DHT22;37677;53.254;6.594;2022-10-10T14:20:38;12.80;1.00
51595;DHT22;37677;53.254;6.594;2022-10-10T14:23:03;12.80;1.00
51595;DHT22;37677;53.254;6.594;2022-10-10T14:25:29;13.30;1.00
51595;DHT22;37677;53.254;6.594;2022-10-10T14:27:56;12.80;1.00
51595;DHT22;37677;53.254;6.594;2022-10-10T14:30:22;12.70;1.00
51595;DHT22;37677;53.254;6.594;2022-10-10T14:32:48;12.70;1.00
51595;DHT22;37677;53.254;6.594;2022-10-10T14:35:14;12.70;1.00
51595;DHT22;37677;53.254;6.594;2022-10-10T14:37:40;12.70;1.00
51595;DHT22;37677;53.254;6.594;2022-10-10T14:40:18;12.80;1.00
51595;DHT22;37677;53.254;6.594;2022-10-10T14:42:45;12.80;4.40
51595;DHT22;37677;53.254;6.594;2022-10-10T14:45:15;12.90;3.10
51595;DHT22;37677;53.254;6.594;2022-10-10T14:47:41;12.90;6.80
51595;DHT22;37677;53.254;6.594;2022-10-10T14:50:17;13.10;10.30
51595;DHT22;37677;53.254;6.594;2022-10-10T14:52:43;13.10;10.30
51595;DHT22;37677;53.254;6.594;2022-10-10T14:55:09;13.20;8.00
51595;DHT22;37677;53.254;6.594;2022-10-10T14:57:35;13.20;7.70
51595;DHT22;37677;53.254;6.594;2022-10-10T15:00:02;13.30;6.50
51595;DHT22;37677;53.254;6.594;2022-10-10T15:02:28;13.30;3.70
51595;DHT22;37677;53.254;6.594;2022-10-10T15:04:55;13.30;2.20
51595;DHT22;37677;53.254;6.594;2022-10-10T15:07:20;13.10;1.00
51595;DHT22;37677;53.254;6.594;2022-10-10T15:09:47;13.10;1.00
51595;DHT22;37677;53.254;6.594;2022-10-10T15:12:13;13.10;1.00
51595;DHT22;37677;53.254;6.594;2022-10-10T15:14:39;13.00;1.00
51595;DHT22;37677;53.254;6.594;2022-10-10T15:17:05;13.00;1.00
51595;DHT22;37677;53.254;6.594;2022-10-10T15:19:30;12.90;1.00
51595;DHT22;37677;53.254;6.594;2022-10-10T15:21:56;12.90;1.00
51595;DHT22;37677;53.254;6.594;2022-10-10T15:24:23;12.80;1.00
51595;DHT22;37677;53.254;6.594;2022-10-10T15:26:48;12.70;1.00
51595;DHT22;37677;53.254;6.594;2022-10-10T15:29:14;12.50;1.00
51595;DHT22;37677;53.254;6.594;2022-10-10T15:31:40;12.40;1.00
51595;DHT22;37677;53.254;6.594;2022-10-10T15:34:05;12.40;1.00
51595;DHT22;37677;53.254;6.594;2022-10-10T15:36:33;12.40;1.00
51595;DHT22;37677;53.254;6.594;2022-10-10T15:38:59;12.30;1.00
51595;DHT22;37677;53.254;6.594;2022-10-10T15:41:24;12.40;1.00
51595;DHT22;37677;53.254;6.594;2022-10-10T15:43:52;12.00;1.00
51595;DHT22;37677;53.254;6.594;2022-10-10T15:46:23;12.30;1.00
51595;DHT22;37677;53.254;6.594;2022-10-10T15:48:49;12.30;1.00
51595;DHT22;37677;53.254;6.594;2022-10-10T15:51:15;12.20;1.00
51595;DHT22;37677;53.254;6.594;2022-10-10T15:53:41;12.30;1.00
51595;DHT22;37677;53.254;6.594;2022-10-10T15:56:11;12.30;1.00
51595;DHT22;37677;53.254;6.594;2022-10-10T15:58:37;12.30;1.00
51595;DHT22;37677;53.254;6.594;2022-10-10T16:03:38;12.10;1.00
51595;DHT22;37677;53.254;6.594;2022-10-10T16:06:04;12.10;1.00
51595;DHT22;37677;53.254;6.594;2022-10-10T16:08:30;12.10;1.00
51595;DHT22;37677;53.254;6.594;2022-10-10T16:10:56;12.00;1.00
51595;DHT22;37677;53.254;6.594;2022-10-10T16:13:21;12.00;1.00
51595;DHT22;37677;53.254;6.594;2022-10-10T16:15:58;12.30;1.00
51595;DHT22;37677;53.254;6.594;2022-10-10T16:18:24;11.80;1.00
51595;DHT22;37677;53.254;6.594;2022-10-10T16:20:50;11.80;1.00
51595;DHT22;37677;53.254;6.594;2022-10-10T16:23:15;11.70;1.00
51595;DHT22;37677;53.254;6.594;2022-10-10T16:25:41;11.70;1.00
51595;DHT22;37677;53.254;6.594;2022-10-10T16:28:07;11.60;1.00
51595;DHT22;37677;53.254;6.594;2022-10-10T16:30:32;11.70;1.00
51595;DHT22;37677;53.254;6.594;2022-10-10T16:32:58;11.80;1.00
51595;DHT22;37677;53.254;6.594;2022-10-10T16:35:24;11.90;1.00
51595;DHT22;37677;53.254;6.594;2022-10-10T16:37:50;11.60;1.00
51595;DHT22;37677;53.254;6.594;2022-10-10T16:40:16;11.50;1.00
51595;DHT22;37677;53.254;6.594;2022-10-10T16:42:41;11.50;1.00
51595;DHT22;37677;53.254;6.594;2022-10-10T16:45:08;11.30;1.00
51595;DHT22;37677;53.254;6.594;2022-10-10T16:47:34;11.30;1.00
51595;DHT22;37677;53.254;6.594;2022-10-10T16:49:59;11.30;1.00
51595;DHT22;37677;53.254;6.594;2022-10-10T16:52:25;11.20;1.00
51595;DHT22;37677;53.254;6.594;2022-10-10T16:54:51;11.10;1.00
51595;DHT22;37677;53.254;6.594;2022-10-10T16:57:16;11.10;1.00
51595;DHT22;37677;53.254;6.594;2022-10-10T16:59:42;11.00;1.00
51595;DHT22;37677;53.254;6.594;2022-10-10T17:02:10;10.90;1.00
51595;DHT22;37677;53.254;6.594;2022-10-10T17:04:36;11.30;1.00
51595;DHT22;37677;53.254;6.594;2022-10-10T17:07:02;10.90;1.00
51595;DHT22;37677;53.254;6.594;2022-10-10T17:09:27;10.80;1.00
51595;DHT22;37677;53.254;6.594;2022-10-10T17:11:53;10.80;1.00
51595;DHT22;37677;53.254;6.594;2022-10-10T17:14:19;11.10;1.00
51595;DHT22;37677;53.254;6.594;2022-10-10T17:16:44;10.80;1.00
51595;DHT22;37677;53.254;6.594;2022-10-10T17:19:10;10.70;1.00
51595;DHT22;37677;53.254;6.594;2022-10-10T17:21:36;10.60;1.00
51595;DHT22;37677;53.254;6.594;2022-10-10T17:24:02;10.70;1.00